Time;durP1;ratioP1;P1;durP2;ratioP2;P2;SDS_P1;SDS_P2;PMS_P1;PMS_P2;Temp;Humidity;BMP_temperature;BMP_pressure;BME280_temperature;BME280_humidity;BME280_pressure;Samples;Min_cycle;Max_cycle;Signal;HPM_P1;HPM_P2
2021/05/03 05:31:25;;;;;;;9.15;5.70;;;;;;;4.41;80.05;99889.09;1754909;76;26766;-57
2021/05/03 05:33:52;;;;;;;7.12;4.62;;;;;;;4.45;79.46;99894.97;1795627;79;25610;-57
2021/05/03 05:36:19;;;;;;;5.80;4.00;;;;;;;4.49;79.38;99897.37;1795341;79;25561;-57
2021/05/03 05:38:45;;;;;;;7.40;4.85;;;;;;;4.52;78.64;99897.88;1795802;79;25579;-56
2021/05/03 05:41:14;;;;;;;8.90;3.95;;;;;;;4.56;78.82;99898.37;1795902;79;25824;-56
2021/05/03 05:43:41;;;;;;;5.57;3.90;;;;;;;4.60;78.70;99900.77;1796125;79;25583;-56
2021/05/03 05:46:08;;;;;;;7.08;3.45;;;;;;;4.65;77.98;99899.95;1796088;79;26205;-56
2021/05/03 05:48:36;;;;;;;8.03;3.70;;;;;;;4.66;77.86;99906.88;1795992;79;25571;-55
2021/05/03 05:51:04;;;;;;;6.15;3.42;;;;;;;4.68;77.61;99909.56;1796054;79;25635;-55
2021/05/03 05:53:32;;;;;;;5.92;3.67;;;;;;;4.71;77.79;99912.75;1796068;79;25971;-56
2021/05/03 05:56:00;;;;;;;6.20;3.70;;;;;;;4.75;77.97;99917.28;1796030;79;25625;-55
2021/05/03 05:58:32;;;;;;;6.83;3.47;;;;;;;4.80;77.91;99919.93;1796036;79;25549;-56
2021/05/03 06:00:57;;;;;;;11.40;4.20;;;;;;;4.86;77.12;99909.95;1754354;81;25613;-56
2021/05/03 06:03:25;;;;;;;3.85;2.87;;;;;;;4.89;77.37;99926.00;1795897;79;25647;-55
2021/05/03 06:05:51;;;;;;;4.40;2.60;;;;;;;4.94;77.45;99923.28;1795965;79;25805;-55
2021/05/03 06:08:18;;;;;;;4.40;2.75;;;;;;;4.99;77.15;99922.73;1795864;79;25568;-56
2021/05/03 06:10:47;;;;;;;3.10;2.47;;;;;;;5.06;76.73;99922.41;1792953;78;25560;-56
2021/05/03 06:13:15;;;;;;;3.52;2.35;;;;;;;5.13;75.54;99934.15;1805450;78;25604;-56
2021/05/03 06:15:41;;;;;;;3.05;1.90;;;;;;;5.20;75.29;99922.00;1791078;78;25628;-55
2021/05/03 06:18:08;;;;;;;2.80;2.10;;;;;;;5.28;75.43;99943.40;1790944;78;26985;-56
2021/05/03 06:20:35;;;;;;;5.55;2.40;;;;;;;5.37;74.91;99931.52;1795806;78;25607;-56
2021/05/03 06:23:04;;;;;;;3.98;2.10;;;;;;;5.46;74.50;99935.72;1783194;78;25680;-56
2021/05/03 06:25:32;;;;;;;2.85;1.92;;;;;;;5.53;74.15;99941.55;1789559;78;25685;-55
2021/05/03 06:28:00;;;;;;;4.83;2.40;;;;;;;5.60;73.76;99946.85;1779754;78;25258;-57
2021/05/03 06:30:28;;;;;;;3.42;2.58;;;;;;;5.65;74.02;99943.30;1788918;78;26534;-56
2021/05/03 06:32:55;;;;;;;4.35;2.77;;;;;;;5.68;72.81;99946.76;1791658;78;25748;-55
2021/05/03 06:35:23;;;;;;;6.62;3.02;;;;;;;5.70;73.19;99947.82;1780616;78;25613;-57
2021/05/03 06:37:51;;;;;;;3.75;2.70;;;;;;;5.74;73.07;99951.55;1787641;78;25575;-56
2021/05/03 06:40:19;;;;;;;3.75;2.67;;;;;;;5.77;72.74;99942.91;1810058;78;25558;-55
2021/05/03 06:42:48;;;;;;;6.47;2.60;;;;;;;5.84;71.38;99944.73;1825391;78;25784;-56
2021/05/03 06:45:18;;;;;;;6.22;3.15;;;;;;;5.90;71.31;99947.59;1784623;78;25831;-56
2021/05/03 06:47:46;;;;;;;6.80;2.95;;;;;;;6.02;72.09;99952.59;1789319;78;25619;-54
2021/05/03 06:50:14;;;;;;;6.40;2.83;;;;;;;6.16;71.66;99951.34;1779054;78;26375;-56
2021/05/03 06:52:44;;;;;;;4.83;3.08;;;;;;;6.32;71.20;99960.83;1792952;78;25557;-55
2021/05/03 06:55:14;;;;;;;;;;;;;;;6.50;70.92;99953.06;1791303;78;26587;-56
2021/05/03 06:57:42;;;;;;;5.45;2.62;;;;;;;6.65;70.07;99960.12;1780732;78;25537;-55
2021/05/03 07:00:13;;;;;;;5.10;3.30;;;;;;;6.81;70.92;99967.41;1794085;78;25603;-56
2021/05/03 07:02:41;;;;;;;5.65;3.05;;;;;;;6.97;69.46;99953.21;1794395;78;25492;-55
2021/05/03 07:05:10;;;;;;;5.35;2.70;;;;;;;7.04;68.15;99963.05;1788240;78;25691;-57
2021/05/03 07:07:37;;;;;;;4.58;2.50;;;;;;;7.02;66.79;99964.68;1788005;78;26618;-56
2021/05/03 07:10:07;;;;;;;4.55;2.50;;;;;;;6.97;64.57;99963.41;1782304;78;25679;-59
2021/05/03 07:12:40;;;;;;;3.85;2.50;;;;;;;6.93;66.97;99961.06;1788467;78;25669;-56
2021/05/03 07:15:09;;;;;;;3.80;2.60;;;;;;;7.02;66.98;99977.33;1790502;78;25733;-56
2021/05/03 07:17:36;;;;;;;4.87;2.50;;;;;;;7.11;63.33;99951.36;1800165;78;25731;-56
2021/05/03 07:20:06;;;;;;;4.20;2.33;;;;;;;7.24;63.89;99970.78;1792594;78;25968;-57
2021/05/03 07:22:33;;;;;;;2.80;2.50;;;;;;;7.39;65.64;99964.36;1787842;78;25547;-57
2021/05/03 07:25:05;;;;;;;4.25;2.80;;;;;;;7.56;65.60;99967.83;1784873;78;25806;-57
2021/05/03 07:27:50;;;;;;;4.85;2.90;;;;;;;7.76;65.24;99957.22;1790273;78;25590;-56
2021/05/03 07:30:19;;;;;;;2.40;2.08;;;;;;;7.95;64.84;99967.92;1786918;78;25660;-59
2021/05/03 07:32:52;;;;;;;7.15;2.67;;;;;;;8.09;64.25;99970.61;1793136;78;25871;-60
2021/05/03 07:35:21;;;;;;;6.50;2.30;;;;;;;8.25;64.90;99964.91;1784657;78;25683;-57
2021/05/03 07:37:47;;;;;;;2.67;2.20;;;;;;;8.34;64.45;99968.48;1789778;78;26198;-56
2021/05/03 07:40:15;;;;;;;3.70;2.15;;;;;;;8.38;62.23;99977.58;1779795;78;25700;-56
2021/05/03 07:42:42;;;;;;;3.25;2.50;;;;;;;8.35;61.76;99970.87;1790361;78;26041;-56
2021/05/03 07:45:13;;;;;;;4.35;2.42;;;;;;;8.41;62.22;99969.69;1789094;78;26226;-56
2021/05/03 07:47:41;;;;;;;2.37;1.95;;;;;;;8.53;60.40;99975.94;1785968;78;25573;-56
2021/05/03 07:50:09;;;;;;;3.17;1.95;;;;;;;8.68;60.64;99987.47;1801855;78;25627;-55
2021/05/03 07:52:35;;;;;;;2.77;2.08;;;;;;;8.72;57.04;99989.27;1794308;78;26308;-56
2021/05/03 07:55:05;;;;;;;2.25;2.05;;;;;;;8.78;59.05;99996.16;1783573;78;25553;-56
2021/05/03 07:57:32;;;;;;;3.27;2.20;;;;;;;8.94;59.25;99978.27;1753216;78;25803;-56
2021/05/03 07:59:59;;;;;;;2.75;2.10;;;;;;;9.10;58.15;100002.42;1788089;78;26350;-56
2021/05/03 08:02:26;;;;;;;3.22;1.72;;;;;;;9.17;57.41;100003.34;1796207;78;25520;-55
2021/05/03 08:04:53;;;;;;;6.60;2.15;;;;;;;9.20;56.97;100008.70;1793923;78;25669;-56
2021/05/03 08:07:20;;;;;;;3.87;1.90;;;;;;;9.39;57.53;100014.70;1795204;79;25616;-56
2021/05/03 08:09:47;;;;;;;2.83;1.85;;;;;;;9.59;55.78;100004.52;1795199;78;25686;-56
2021/05/03 08:12:14;;;;;;;2.77;2.15;;;;;;;9.93;56.87;100009.28;1786980;78;26403;-57
2021/05/03 08:14:44;;;;;;;3.20;2.22;;;;;;;10.19;55.63;100018.84;1786471;78;25602;-56
2021/05/03 08:17:14;;;;;;;3.87;2.33;;;;;;;10.32;56.70;100013.65;1816048;78;25567;-56
2021/05/03 08:19:40;;;;;;;4.72;2.72;;;;;;;10.50;55.20;100019.91;1819666;78;25512;-56
2021/05/03 08:22:07;;;;;;;3.05;1.75;;;;;;;10.42;54.85;100018.77;1799314;78;26973;-56
2021/05/03 08:24:35;;;;;;;2.75;2.17;;;;;;;10.34;54.58;100017.64;1819794;78;25592;-56
2021/05/03 08:27:05;;;;;;;2.80;2.10;;;;;;;10.36;54.70;100030.29;1803864;78;25692;-56
2021/05/03 08:29:33;;;;;;;;;;;;;;;10.40;55.00;100030.45;1798299;79;25607;-55
2021/05/03 08:32:02;;;;;;;3.65;2.00;;;;;;;10.41;53.02;100039.61;1789693;79;25615;-55
2021/05/03 08:34:29;;;;;;;5.00;2.40;;;;;;;10.35;52.26;100042.23;1780003;80;26014;-56
2021/05/03 08:36:57;;;;;;;6.20;2.77;;;;;;;10.35;53.94;100036.01;1781574;80;25601;-55
2021/05/03 08:39:26;;;;;;;5.35;2.25;;;;;;;10.49;54.92;100041.29;1738005;82;25537;-56
2021/05/03 08:41:57;;;;;;;2.20;1.80;;;;;;;10.78;54.45;100048.86;1781194;80;26323;-56
2021/05/03 08:44:27;;;;;;;1.90;1.80;;;;;;;11.12;54.44;100045.38;1781376;80;25566;-56
2021/05/03 08:46:56;;;;;;;2.98;1.92;;;;;;;11.49;53.22;100043.67;1773988;80;25722;-56
2021/05/03 08:54:34;;;;;;;2.52;2.25;;;;;;;11.31;50.68;100044.27;1753139;80;25603;-55
2021/05/03 08:56:57;;;;;;;5.58;2.00;;;;;;;11.08;51.89;100042.27;1780186;80;25569;-55
2021/05/03 08:59:24;;;;;;;3.22;1.87;;;;;;;10.94;51.74;100047.27;1779325;80;28006;-56
2021/05/03 09:01:54;;;;;;;2.55;2.10;;;;;;;10.87;53.26;100046.95;1781433;80;25537;-56
2021/05/03 09:04:24;;;;;;;3.45;1.80;;;;;;;11.09;51.48;100054.13;1737612;82;26146;-56
2021/05/03 09:07:12;;;;;;;3.27;1.62;;;;;;;10.87;50.55;100054.28;1781514;80;25625;-56
2021/05/03 09:09:46;;;;;;;3.98;2.80;;;;;;;10.78;51.23;100052.91;1781497;80;25617;-55
2021/05/03 09:12:19;;;;;;;2.25;1.37;;;;;;;11.11;49.16;100053.81;1781725;80;26654;-56
2021/05/03 09:15:02;;;;;;;2.60;1.80;;;;;;;11.61;52.36;100057.91;1781526;80;25553;-56
2021/05/03 09:17:37;;;;;;;1.67;1.30;;;;;;;12.17;52.80;100062.81;1779080;80;25557;-56
2021/05/03 09:20:14;;;;;;;3.85;1.50;;;;;;;12.54;49.15;100059.62;1776814;80;25612;-56
2021/05/03 09:22:47;;;;;;;2.00;1.50;;;;;;;12.53;47.11;100062.88;1781278;80;25538;-56
2021/05/03 09:28:20;;;;;;;2.72;2.10;;;;;;;12.12;46.49;100079.25;1781082;80;26066;-55
2021/05/03 09:30:59;;;;;;;4.00;1.50;;;;;;;11.76;47.39;100069.59;1758752;79;25667;-56
2021/05/03 09:33:35;;;;;;;4.15;1.80;;;;;;;11.40;47.70;100075.61;1786285;78;25629;-56
2021/05/03 09:36:09;;;;;;;2.10;1.55;;;;;;;11.32;49.13;100074.27;1772852;80;25615;-56
2021/05/03 09:38:48;;;;;;;5.25;1.70;;;;;;;11.26;49.53;100074.99;1781665;80;25698;-55
2021/05/03 09:41:28;;;;;;;2.80;1.92;;;;;;;11.28;49.69;100076.82;1791005;79;25544;-55
2021/05/03 09:44:07;;;;;;;4.90;2.37;;;;;;;11.44;49.66;100079.86;1808254;79;25626;-57
2021/05/03 09:46:40;;;;;;;2.17;1.75;;;;;;;11.82;49.52;100090.56;1807806;79;25544;-57
2021/05/03 09:49:11;;;;;;;2.62;1.98;;;;;;;12.18;49.48;100084.75;1808025;79;25592;-55
2021/05/03 09:51:45;;;;;;;3.50;2.08;;;;;;;12.27;49.12;100084.14;1808179;79;25683;-56
2021/05/03 09:54:28;;;;;;;4.35;2.00;;;;;;;12.28;48.41;100098.52;1787842;79;25592;-56
2021/05/03 09:57:06;;;;;;;3.12;2.00;;;;;;;12.47;49.81;100091.33;1792233;78;25571;-56
2021/05/03 09:59:46;;;;;;;5.00;1.92;;;;;;;12.60;49.62;100093.56;1810308;78;26046;-55
2021/05/03 10:07:39;;;;;;;2.15;1.85;;;;;;;12.42;46.66;100095.58;1809113;78;25484;-56
2021/05/03 10:10:13;;;;;;;;;;;;;;;12.40;48.67;100105.97;1790962;79;25399;-54
2021/05/03 10:12:39;;;;;;;4.55;2.87;;;;;;;12.35;47.25;100095.30;1787251;79;25422;-56
2021/05/03 10:15:10;;;;;;;7.95;2.72;;;;;;;12.08;45.89;100098.66;1785003;78;25775;-55
2021/05/03 10:17:43;;;;;;;4.15;2.00;;;;;;;11.88;48.50;100109.02;1777115;78;25715;-55
2021/05/03 10:20:13;;;;;;;2.77;2.00;;;;;;;11.96;49.68;100100.67;1751661;81;25558;-55
2021/05/03 10:22:40;;;;;;;2.92;1.95;;;;;;;12.32;49.12;100104.30;1751147;81;25710;-55
2021/05/03 10:25:12;;;;;;;3.20;2.20;;;;;;;12.30;48.54;100099.77;1753995;80;26236;-55
2021/05/03 10:27:43;;;;;;;2.30;2.10;;;;;;;12.03;47.79;100106.96;1786324;80;25620;-54
2021/05/03 10:30:15;;;;;;;2.05;1.65;;;;;;;11.68;47.56;100111.05;1786095;79;25913;-56
2021/05/03 10:32:44;;;;;;;5.22;2.27;;;;;;;11.40;48.04;100104.61;1786665;78;25548;-55
2021/05/03 10:35:30;;;;;;;4.80;2.20;;;;;;;11.35;48.51;100117.75;1786280;80;25550;-55
2021/05/03 10:37:57;;;;;;;4.40;1.90;;;;;;;11.38;49.44;100112.27;1786711;80;26056;-54
2021/05/03 10:40:36;;;;;;;2.47;1.80;;;;;;;11.16;48.49;100125.39;1787034;80;25605;-55
2021/05/03 10:43:14;;;;;;;3.08;1.90;;;;;;;10.95;49.12;100133.33;1787013;80;25687;-55
2021/05/03 10:54:34;;;;;;;4.72;2.30;;;;;;;11.57;46.44;100111.94;1852098;77;26994;-56
2021/05/03 10:57:02;;;;;;;2.20;1.85;;;;;;;11.41;46.31;100107.58;1782147;80;25717;-57
2021/05/03 10:59:46;;;;;;;3.58;2.10;;;;;;;11.15;48.68;100127.31;1786192;80;25524;-54
2021/05/03 11:02:23;;;;;;;2.30;2.10;;;;;;;10.96;47.63;100128.14;1843882;76;34653;-55
2021/05/03 11:05:26;;;;;;;5.35;2.62;;;;;;;10.61;48.82;100138.87;1788787;80;25677;-55
2021/05/03 11:08:10;;;;;;;3.37;2.17;;;;;;;10.32;49.97;100136.66;1788649;79;25676;-55
2021/05/03 11:11:08;;;;;;;5.03;2.52;;;;;;;9.95;51.65;100140.80;1768398;80;25652;-55
2021/05/03 11:13:49;;;;;;;3.80;2.27;;;;;;;9.78;53.63;100145.53;1788681;79;25193;-55
2021/05/03 11:16:33;;;;;;;4.03;2.65;;;;;;;9.63;54.22;100147.25;1788619;80;25961;-55
2021/05/03 11:19:23;;;;;;;5.60;3.50;;;;;;;9.46;54.73;100145.99;1788675;79;25601;-55
2021/05/03 11:21:52;;;;;;;3.27;2.92;;;;;;;9.42;55.23;100150.98;1792484;78;26130;-55
2021/05/03 11:24:31;;;;;;;4.92;3.35;;;;;;;9.32;55.32;100151.44;1802064;77;25553;-55
2021/05/03 11:32:06;;;;;;;4.62;2.67;;;;;;;9.08;55.49;100154.94;1754979;80;26163;-54
2021/05/03 11:34:41;;;;;;;3.60;2.70;;;;;;;8.92;55.54;100157.95;1787749;78;26823;-54
2021/05/03 11:37:09;;;;;;;3.37;2.98;;;;;;;8.78;56.13;100157.14;1768904;80;25808;-54
2021/05/03 11:44:57;;;;;;;5.85;3.58;;;;;;;8.59;57.75;100162.08;1742400;81;25537;-53
2021/05/03 11:47:38;;;;;;;4.80;3.90;;;;;;;8.58;58.15;100163.72;1747480;79;25776;-52
2021/05/03 11:50:07;;;;;;;4.35;3.10;;;;;;;8.57;58.40;100183.16;1751624;81;26025;-54
2021/05/03 11:52:37;;;;;;;4.45;3.47;;;;;;;8.54;57.99;100181.61;1723607;81;25743;-54
2021/05/03 11:55:11;;;;;;;4.22;3.17;;;;;;;8.50;58.64;100172.52;1750616;81;25627;-53
2021/05/03 11:57:44;;;;;;;5.60;4.00;;;;;;;8.48;58.74;100173.34;1741812;81;25732;-53
2021/05/03 12:00:16;;;;;;;3.30;2.87;;;;;;;8.47;59.39;100174.46;1742679;80;25701;-56
2021/05/03 12:02:43;;;;;;;4.03;3.27;;;;;;;8.81;58.59;100180.03;1736890;81;26482;-53
2021/05/03 12:05:18;;;;;;;5.15;2.90;;;;;;;9.05;58.02;100171.17;1732938;80;25657;-53
2021/05/03 12:07:47;;;;;;;3.52;2.75;;;;;;;9.33;57.17;100171.94;1752427;81;25624;-54
2021/05/03 12:10:20;;;;;;;3.45;2.77;;;;;;;9.52;56.72;100164.25;1762287;81;25600;-54
2021/05/03 12:12:52;;;;;;;3.27;2.67;;;;;;;9.54;56.17;100157.42;1753913;81;25880;-54
2021/05/03 12:15:26;;;;;;;3.20;2.70;;;;;;;9.54;55.53;100172.27;1743037;81;26290;-55
2021/05/03 12:18:00;;;;;;;3.62;2.70;;;;;;;9.44;54.81;100185.21;1774637;79;25624;-53
2021/05/03 12:20:31;;;;;;;2.85;2.30;;;;;;;9.19;54.17;100177.11;1794553;79;25555;-56
2021/05/03 12:23:06;;;;;;;2.60;2.40;;;;;;;9.09;55.76;100176.76;1791521;79;25639;-54
2021/05/03 12:28:25;;;;;;;4.78;2.60;;;;;;;9.62;55.34;100173.47;1747305;81;25738;-53
2021/05/03 12:30:58;;;;;;;3.77;2.47;;;;;;;9.83;54.99;100167.58;1745776;81;25613;-53
2021/05/03 12:33:27;;;;;;;3.50;2.27;;;;;;;9.93;53.90;100164.64;1745753;81;25600;-54
2021/05/03 12:35:55;;;;;;;2.20;2.00;;;;;;;10.03;54.52;100178.46;1748195;79;25607;-53
2021/05/03 12:38:28;;;;;;;3.20;2.30;;;;;;;10.07;55.24;100180.78;1726842;81;26027;-53
2021/05/03 12:40:59;;;;;;;4.40;2.37;;;;;;;10.04;53.71;100178.12;1763554;79;26156;-53
2021/05/03 12:43:37;;;;;;;4.97;2.35;;;;;;;10.01;53.77;100184.17;1793539;79;26354;-50
2021/05/03 12:46:29;;;;;;;5.22;2.72;;;;;;;9.88;52.17;100191.78;1795115;79;25638;-51
2021/05/03 12:59:51;;;;;;;4.05;3.50;;;;;;;9.29;54.31;100191.17;1818759;78;26263;-63
2021/05/03 13:04:55;;;;;;;4.97;3.92;;;;;;;9.56;55.28;100192.78;1888346;76;34643;-63
2021/05/03 13:29:44;;;;;;;9.85;6.30;;;;;;;9.59;56.61;100212.44;1794112;78;25682;-63
2021/05/03 13:32:19;;;;;;;8.90;6.35;;;;;;;9.37;58.30;100216.67;1817055;78;25595;-62
2021/05/03 13:34:46;;;;;;;9.55;6.00;;;;;;;9.09;59.90;100205.09;1817726;78;26600;-63
2021/05/03 13:37:13;;;;;;;7.42;5.80;;;;;;;8.82;60.21;100205.89;1817915;78;25713;-62
2021/05/03 13:39:42;;;;;;;7.40;5.95;;;;;;;8.58;61.18;100209.03;1817961;78;25698;-62
2021/05/03 13:42:14;;;;;;;9.00;5.95;;;;;;;8.46;61.77;100203.30;1784181;77;25589;-63
2021/05/03 13:44:42;;;;;;;11.15;5.92;;;;;;;8.44;62.65;100213.58;1795045;78;25644;-63
2021/05/03 13:47:10;;;;;;;9.08;6.17;;;;;;;8.40;62.57;100202.56;1815092;77;25681;-62
2021/05/03 13:49:39;;;;;;;7.87;5.75;;;;;;;8.43;62.47;100197.17;1805289;77;25568;-62
2021/05/03 13:52:08;;;;;;;10.58;6.45;;;;;;;8.49;62.97;100202.70;1818147;77;25634;-62
2021/05/03 13:54:36;;;;;;;10.18;6.35;;;;;;;8.67;62.77;100203.74;1792543;79;25702;-62
2021/05/03 13:57:06;;;;;;;8.15;6.28;;;;;;;8.67;62.77;100203.74;1755123;80;25600;-62
2021/05/03 13:59:34;;;;;;;8.73;6.40;;;;;;;8.79;62.66;100197.30;1785598;80;25831;-63
2021/05/03 14:02:03;;;;;;;7.92;6.37;;;;;;;8.98;63.08;100204.50;1785635;80;25829;-62
2021/05/03 14:04:30;;;;;;;6.87;6.12;;;;;;;9.07;61.89;100200.55;1785725;80;25673;-62
2021/05/03 14:06:57;;;;;;;6.65;5.47;;;;;;;9.12;61.44;100196.40;1781530;78;25667;-63
2021/05/03 14:09:25;;;;;;;9.85;6.87;;;;;;;9.13;61.43;100194.75;1817960;78;25662;-62
2021/05/03 14:11:52;;;;;;;7.03;5.30;;;;;;;9.15;61.55;100192.55;1817859;78;26148;-62
2021/05/03 14:14:19;;;;;;;8.35;5.78;;;;;;;9.23;62.04;100195.09;1821142;78;25735;-63
2021/05/03 14:16:48;;;;;;;10.03;5.85;;;;;;;9.37;62.32;100199.13;1827023;78;25659;-63
2021/05/03 14:19:19;;;;;;;7.15;6.12;;;;;;;9.55;61.99;100196.02;1827001;78;25599;-63
2021/05/03 14:21:45;;;;;;;7.28;5.50;;;;;;;9.70;61.77;100192.18;1826882;78;25544;-63
2021/05/03 14:24:14;;;;;;;8.30;5.83;;;;;;;9.79;61.38;100189.55;1818386;77;25681;-62
2021/05/03 14:26:44;;;;;;;;;;;;;;;9.78;60.92;100194.16;1805234;77;26041;-63
2021/05/03 14:32:01;;;;;;;6.35;5.62;;;;;;;9.75;61.12;100180.47;1847063;76;34779;-62
2021/05/03 14:36:57;;;;;;;7.62;5.87;;;;;;;9.70;61.19;100184.08;1817257;78;26144;-62
2021/05/03 14:39:25;;;;;;;8.03;5.90;;;;;;;9.60;60.68;100188.36;1817230;78;25775;-62
2021/05/03 14:41:53;;;;;;;7.33;5.87;;;;;;;9.49;60.79;100187.23;1817250;78;25601;-62
2021/05/03 14:44:21;;;;;;;8.00;5.40;;;;;;;9.32;60.55;100187.88;1817670;78;25635;-62
2021/05/03 14:46:52;;;;;;;8.00;5.55;;;;;;;9.23;60.99;100182.95;1783824;78;26251;-62
2021/05/03 14:52:02;;;;;;;7.25;5.30;;;;;;;8.97;60.28;100183.48;1817951;78;26315;-61
2021/05/03 14:54:33;;;;;;;12.05;6.40;;;;;;;8.83;60.47;100184.02;1817707;78;25610;-61
2021/05/03 14:57:01;;;;;;;;;;;;;;;8.77;61.31;100186.58;1789035;78;25647;-62
2021/05/03 14:59:31;;;;;;;10.55;5.65;;;;;;;8.73;61.69;100182.86;1817551;78;26269;-63
2021/05/03 15:02:00;;;;;;;7.22;5.67;;;;;;;8.76;61.61;100186.31;1814616;77;25919;-62
2021/05/03 15:04:28;;;;;;;7.27;5.60;;;;;;;8.79;61.34;100189.77;1808960;77;25602;-61
2021/05/03 15:07:00;;;;;;;8.83;4.95;;;;;;;8.92;61.87;100179.53;1774421;79;25708;-61
2021/05/03 15:09:25;;;;;;;6.07;4.70;;;;;;;9.04;61.96;100171.47;1836373;77;25566;-63
2021/05/03 15:11:54;;;;;;;7.17;4.65;;;;;;;9.20;61.88;100176.02;1784308;80;25719;-62
2021/05/03 15:22:08;;;;;;;6.53;4.97;;;;;;;9.61;59.63;100165.10;1860926;76;35811;-62
2021/05/03 15:24:35;;;;;;;6.35;5.05;;;;;;;9.55;59.80;100159.56;1848457;77;25626;-62
2021/05/03 15:27:09;;;;;;;7.62;5.15;;;;;;;9.56;59.83;100157.68;1779204;80;25690;-62
2021/05/03 15:34:50;;;;;;;7.65;5.05;;;;;;;9.65;59.13;100153.14;1764603;80;25707;-61
2021/05/03 15:37:16;;;;;;;7.12;5.33;;;;;;;9.53;58.33;100163.95;1784776;80;25543;-62
2021/05/03 15:39:43;;;;;;;8.58;6.12;;;;;;;9.47;59.04;100154.91;1766495;79;26365;-62
2021/05/03 15:42:10;;;;;;;6.67;4.50;;;;;;;9.54;58.90;100167.44;1745221;79;25838;-62
2021/05/03 15:44:38;;;;;;;6.12;4.97;;;;;;;9.58;58.53;100167.06;1759786;79;26260;-61
2021/05/03 15:47:05;;;;;;;5.92;4.70;;;;;;;9.56;57.92;100156.33;1778245;79;25608;-61
2021/05/03 15:49:32;;;;;;;6.00;4.42;;;;;;;9.48;58.19;100166.77;1738912;79;26272;-62
2021/05/03 15:51:59;;;;;;;7.22;4.60;;;;;;;9.45;58.09;100166.02;1743557;80;26701;-62
2021/05/03 15:54:25;;;;;;;5.78;4.60;;;;;;;9.38;58.12;100157.54;1754255;81;25766;-61
2021/05/03 15:56:52;;;;;;;6.45;4.20;;;;;;;9.33;57.22;100166.54;1760215;81;25689;-60
2021/05/03 15:59:18;;;;;;;5.22;4.55;;;;;;;9.27;57.71;100165.04;1755420;79;25737;-61
2021/05/03 16:01:47;;;;;;;5.47;3.72;;;;;;;9.26;58.11;100158.59;1741736;80;25641;-61
2021/05/03 16:04:13;;;;;;;5.95;3.80;;;;;;;9.30;57.26;100162.30;1733912;81;25734;-61
2021/05/03 16:06:40;;;;;;;4.37;3.98;;;;;;;9.27;57.17;100162.91;1739008;81;25688;-61
2021/05/03 16:09:07;;;;;;;6.25;3.70;;;;;;;9.23;57.01;100171.34;1747224;81;25696;-61
2021/05/03 16:11:33;;;;;;;5.20;4.22;;;;;;;9.16;56.64;100156.94;1760041;81;25625;-61
2021/05/03 16:14:03;;;;;;;4.70;4.03;;;;;;;9.06;56.69;100166.03;1750522;79;25664;-61
2021/05/03 16:16:30;;;;;;;7.65;4.37;;;;;;;9.00;57.53;100158.34;1749235;79;25843;-62
2021/05/03 16:18:57;;;;;;;7.42;4.17;;;;;;;8.92;57.75;100156.61;1742873;82;26331;-61
2021/05/03 16:21:26;;;;;;;5.08;3.67;;;;;;;8.84;58.02;100159.22;1776756;79;25611;-62
2021/05/03 16:23:53;;;;;;;6.28;3.90;;;;;;;8.83;58.33;100163.00;1794854;79;25715;-61
2021/05/03 16:26:20;;;;;;;6.20;4.70;;;;;;;8.81;57.85;100166.55;1795092;79;25674;-62
2021/05/03 16:28:47;;;;;;;5.45;3.60;;;;;;;8.77;58.68;100168.49;1795020;79;28013;-60
2021/05/03 16:31:13;;;;;;;6.75;4.40;;;;;;;8.75;58.29;100162.61;1794907;79;25976;-60
2021/05/03 16:33:41;;;;;;;7.85;4.25;;;;;;;8.73;57.91;100162.08;1758000;79;25715;-61
2021/05/03 16:36:08;;;;;;;4.47;3.47;;;;;;;8.72;57.95;100173.98;1742431;82;25663;-62
2021/05/03 16:38:35;;;;;;;4.33;3.47;;;;;;;8.72;58.09;100169.94;1742335;82;25701;-62
2021/05/03 16:41:02;;;;;;;4.47;3.70;;;;;;;8.73;58.12;100165.34;1742315;82;25735;-61
2021/05/03 16:43:30;;;;;;;4.03;3.35;;;;;;;8.73;58.12;100168.83;1742383;82;25617;-62
2021/05/03 16:45:58;;;;;;;4.95;3.67;;;;;;;8.72;58.53;100179.37;1742656;82;25993;-61
2021/05/03 16:48:25;;;;;;;6.37;3.58;;;;;;;8.70;58.69;100173.48;1742418;82;25692;-61
2021/05/03 16:50:52;;;;;;;5.03;3.95;;;;;;;8.70;58.62;100177.53;1742311;82;26294;-61
2021/05/03 16:53:19;;;;;;;6.85;3.70;;;;;;;8.70;58.86;100185.63;1742302;82;27174;-61
2021/05/03 16:55:46;;;;;;;4.05;3.42;;;;;;;8.69;59.06;100173.79;1754785;79;25593;-60
2021/05/03 16:58:14;;;;;;;5.30;3.12;;;;;;;8.69;59.54;100192.66;1742311;82;25621;-61
2021/05/03 17:00:41;;;;;;;4.20;3.30;;;;;;;8.70;59.38;100188.32;1764131;79;25658;-60
2021/05/03 17:03:07;;;;;;;5.10;3.45;;;;;;;8.72;59.69;100193.42;1794392;79;25626;-62
2021/05/03 17:05:34;;;;;;;4.70;3.80;;;;;;;8.71;59.41;100184.51;1794503;79;25904;-64
2021/05/03 17:08:00;;;;;;;4.08;3.37;;;;;;;8.68;59.35;100193.19;1794207;79;25720;-62
2021/05/03 17:10:28;;;;;;;5.00;3.72;;;;;;;8.61;59.44;100194.14;1773038;79;25593;-62
2021/05/03 17:12:55;;;;;;;4.40;3.30;;;;;;;8.54;59.61;100200.48;1729255;82;25627;-59
2021/05/03 17:15:22;;;;;;;4.78;3.10;;;;;;;8.47;59.79;100198.72;1729266;82;26020;-62
2021/05/03 17:17:49;;;;;;;5.10;3.15;;;;;;;8.40;60.11;100204.47;1700432;82;25836;-61
2021/05/03 17:20:16;;;;;;;5.12;3.85;;;;;;;8.31;60.17;100203.00;1729184;82;25680;-61
2021/05/03 17:22:42;;;;;;;4.40;3.75;;;;;;;8.22;60.69;100198.84;1733100;82;25597;-62
2021/05/03 17:25:11;;;;;;;4.80;4.08;;;;;;;8.15;60.87;100201.09;1732993;82;26285;-61
2021/05/03 17:27:39;;;;;;;4.62;3.65;;;;;;;8.05;61.23;100202.61;1733405;82;25554;-60
2021/05/03 17:30:07;;;;;;;5.15;4.17;;;;;;;7.95;61.83;100194.69;1733306;82;26713;-61
2021/05/03 17:32:34;;;;;;;4.47;3.87;;;;;;;7.86;61.97;100202.08;1733043;82;26254;-61
2021/05/03 17:35:00;;;;;;;5.17;4.12;;;;;;;7.80;62.23;100203.27;1742107;81;25962;-61
2021/05/03 17:37:27;;;;;;;7.35;4.35;;;;;;;7.74;62.64;100208.46;1762038;81;25561;-62
2021/05/03 17:39:53;;;;;;;8.13;4.67;;;;;;;7.66;63.33;100203.20;1760685;80;26250;-62
2021/05/03 17:42:22;;;;;;;6.37;5.20;;;;;;;7.60;63.06;100205.70;1733249;82;26063;-61
2021/05/03 17:44:49;;;;;;;5.28;4.72;;;;;;;7.57;64.07;100213.01;1736419;81;25865;-62
2021/05/03 17:47:15;;;;;;;5.40;4.90;;;;;;;7.55;63.63;100217.09;1740508;81;25587;-62
2021/05/03 17:49:41;;;;;;;5.17;4.25;;;;;;;7.51;64.26;100212.02;1733042;81;25552;-63
2021/05/03 17:52:09;;;;;;;7.78;4.87;;;;;;;7.48;64.03;100217.45;1733115;82;25632;-62
2021/05/03 17:54:35;;;;;;;5.83;4.75;;;;;;;7.43;64.40;100221.00;1754535;81;26618;-62
2021/05/03 17:57:03;;;;;;;6.78;5.30;;;;;;;7.41;64.75;100221.05;1763320;81;25590;-61
2021/05/03 17:59:30;;;;;;;8.05;5.03;;;;;;;7.37;64.79;100218.14;1763750;80;25686;-61
2021/05/03 18:01:57;;;;;;;6.95;4.72;;;;;;;7.35;65.25;100212.78;1745207;79;25677;-61
2021/05/03 18:04:23;;;;;;;4.55;4.15;;;;;;;7.31;65.16;100219.28;1733778;81;25643;-61
2021/05/03 18:06:50;;;;;;;6.65;5.17;;;;;;;7.31;65.28;100219.84;1733303;81;26848;-62
2021/05/03 18:09:16;;;;;;;8.80;5.50;;;;;;;7.29;65.74;100230.33;1733150;82;25680;-62
2021/05/03 18:11:44;;;;;;;7.70;5.65;;;;;;;7.28;65.67;100231.41;1733114;82;25823;-61
2021/05/03 18:14:11;;;;;;;9.38;5.80;;;;;;;7.28;65.84;100230.62;1737800;81;26296;-62
2021/05/03 18:16:38;;;;;;;7.40;5.92;;;;;;;7.25;65.79;100229.31;1756626;81;25952;-62
2021/05/03 18:19:05;;;;;;;7.40;5.70;;;;;;;7.22;65.97;100225.85;1763522;81;25716;-62
2021/05/03 18:21:34;;;;;;;8.15;6.35;;;;;;;7.23;65.89;100232.81;1738868;81;25649;-62
2021/05/03 18:24:04;;;;;;;8.07;6.20;;;;;;;7.22;66.20;100243.34;1729246;82;26221;-62
2021/05/03 18:26:29;;;;;;;11.83;6.40;;;;;;;7.22;66.10;100245.20;1700519;82;25598;-62
2021/05/03 18:28:57;;;;;;;9.75;7.10;;;;;;;7.22;66.41;100251.93;1729492;82;25724;-62
2021/05/03 18:31:27;;;;;;;8.88;6.97;;;;;;;7.22;66.69;100240.65;1729234;82;26686;-63
2021/05/03 18:33:53;;;;;;;11.15;7.20;;;;;;;7.21;66.74;100238.24;1783164;79;25641;-62
2021/05/03 18:36:21;;;;;;;9.83;7.33;;;;;;;7.23;66.71;100249.52;1794156;79;26292;-62
2021/05/03 18:38:48;;;;;;;9.95;7.03;;;;;;;7.22;66.79;100251.41;1778512;79;25241;-62
2021/05/03 18:41:15;;;;;;;13.90;7.45;;;;;;;7.23;66.97;100248.16;1748231;82;25684;-62
2021/05/03 18:43:43;;;;;;;8.00;7.05;;;;;;;7.21;67.42;100249.80;1752089;81;25771;-61
2021/05/03 18:46:11;;;;;;;9.08;7.08;;;;;;;7.20;67.35;100250.91;1748404;81;25669;-61
2021/05/03 18:48:39;;;;;;;9.65;6.50;;;;;;;7.20;67.21;100253.59;1751533;81;25663;-62